Time;durP1;ratioP1;P1;durP2;ratioP2;P2;SDS_P1;SDS_P2;PMS_P1;PMS_P2;Temp;Humidity;BMP_temperature;BMP_pressure;BME280_temperature;BME280_humidity;BME280_pressure;Samples;Min_cycle;Max_cycle;Signal;HPM_P1;HPM_P2
2023/11/20 00:01:41;;;;;;;;;;;;;;;;;;;;;
2023/11/20 00:04:08;;;;;;;3.05;1.95;;;;;;;;;;5026585;28;20400;-86
2023/11/20 00:06:34;;;;;;;1.15;0.57;;;;;;;;;;5013828;28;20045;-86
2023/11/20 00:09:00;;;;;;;1.02;0.95;;;;;;;;;;5022627;28;20037;-86
2023/11/20 00:11:28;;;;;;;3.55;1.70;;;;;;;;;;5023496;28;20508;-86
2023/11/20 00:13:56;;;;;;;4.75;2.05;;;;;;;;;;5025332;28;20053;-86
2023/11/20 00:16:22;;;;;;;2.20;1.60;;;;;;;;;;5021522;28;20046;-86
2023/11/20 00:18:51;;;;;;;4.40;1.83;;;;;;;;;;5023067;28;20416;-86
2023/11/20 00:21:20;;;;;;;6.47;2.10;;;;;;;;;;5032105;28;20049;-87
2023/11/20 00:23:46;;;;;;;5.18;1.63;;;;;;;;;;5025025;28;20057;-87
2023/11/20 00:26:14;;;;;;;1.95;1.15;;;;;;;;;;5029339;28;20417;-86
2023/11/20 00:28:41;;;;;;;5.90;1.52;;;;;;;;;;5022916;28;20056;-86
2023/11/20 00:31:12;;;;;;;4.88;1.30;;;;;;;;;;5031355;28;20049;-86
2023/11/20 00:33:38;;;;;;;2.40;1.90;;;;;;;;;;5019802;28;20049;-85
2023/11/20 00:36:05;;;;;;;4.65;1.55;;;;;;;;;;5029483;28;20052;-85
2023/11/20 00:38:30;;;;;;;22.00;1.90;;;;;;;;;;5016198;28;20056;-85
2023/11/20 00:40:56;;;;;;;2.40;1.35;;;;;;;;;;5035452;28;20045;-85
2023/11/20 00:43:22;;;;;;;3.42;0.95;;;;;;;;;;5027713;28;20049;-85
2023/11/20 00:45:48;;;;;;;2.67;1.02;;;;;;;;;;5030764;28;20033;-85
2023/11/20 00:48:14;;;;;;;3.92;2.13;;;;;;;;;;5030282;28;20067;-85
2023/11/20 00:50:41;;;;;;;1.02;0.60;;;;;;;;;;5032635;28;20045;-85
2023/11/20 00:53:07;;;;;;;2.08;1.60;;;;;;;;;;5031013;28;20057;-85
2023/11/20 00:55:33;;;;;;;4.03;1.08;;;;;;;;;;5024280;28;20152;-85
2023/11/20 00:57:59;;;;;;;3.83;1.58;;;;;;;;;;5022591;28;20068;-85
2023/11/20 01:00:25;;;;;;;1.30;0.80;;;;;;;;;;5027185;28;20084;-85
2023/11/20 01:02:52;;;;;;;3.45;1.20;;;;;;;;;;5026354;28;20097;-86
2023/11/20 01:05:18;;;;;;;1.40;0.88;;;;;;;;;;5029775;28;20037;-86
2023/11/20 01:07:47;;;;;;;1.80;1.00;;;;;;;;;;5024391;28;20124;-86
2023/11/20 01:10:13;;;;;;;3.22;1.98;;;;;;;;;;5032534;28;20041;-85
2023/11/20 01:12:39;;;;;;;1.95;1.15;;;;;;;;;;5031393;28;20568;-85
2023/11/20 01:15:05;;;;;;;1.98;1.17;;;;;;;;;;5027277;28;20980;-86
2023/11/20 01:17:32;;;;;;;3.15;1.67;;;;;;;;;;5023780;28;20050;-86
2023/11/20 01:19:58;;;;;;;1.42;0.82;;;;;;;;;;5027248;28;20065;-86
2023/11/20 01:22:24;;;;;;;2.17;1.45;;;;;;;;;;5017364;28;20041;-86
2023/11/20 01:24:50;;;;;;;3.58;1.38;;;;;;;;;;5034354;28;20038;-85
2023/11/20 01:27:16;;;;;;;3.17;1.20;;;;;;;;;;5032696;28;20045;-86
2023/11/20 01:29:42;;;;;;;1.30;0.65;;;;;;;;;;5026704;28;20034;-85
2023/11/20 01:32:08;;;;;;;5.78;1.15;;;;;;;;;;5023774;28;20041;-86
2023/11/20 01:34:34;;;;;;;4.43;1.15;;;;;;;;;;5027621;28;20045;-85
2023/11/20 01:37:00;;;;;;;1.88;0.73;;;;;;;;;;5022174;28;20049;-86
2023/11/20 01:39:26;;;;;;;3.38;1.58;;;;;;;;;;5032425;28;20531;-86
2023/11/20 01:41:52;;;;;;;1.85;0.75;;;;;;;;;;5033463;28;20088;-86
2023/11/20 01:44:18;;;;;;;3.55;1.08;;;;;;;;;;5031861;28;20403;-85
2023/11/20 01:46:44;;;;;;;1.90;0.80;;;;;;;;;;5029601;28;20053;-85
2023/11/20 01:49:10;;;;;;;2.00;0.70;;;;;;;;;;5024352;28;20116;-85
2023/11/20 01:51:37;;;;;;;0.60;0.35;;;;;;;;;;5019360;28;20050;-85
2023/11/20 01:54:03;;;;;;;0.60;0.43;;;;;;;;;;5025453;28;20041;-85
2023/11/20 01:56:30;;;;;;;1.50;0.50;;;;;;;;;;5028947;28;20049;-85
2023/11/20 01:58:57;;;;;;;1.23;0.50;;;;;;;;;;5030640;28;20084;-86
2023/11/20 02:01:23;;;;;;;1.55;0.57;;;;;;;;;;5025788;28;20477;-85
2023/11/20 02:03:53;;;;;;;1.08;0.57;;;;;;;;;;5027519;28;20108;-85
2023/11/20 02:06:20;;;;;;;12.82;2.13;;;;;;;;;;5019173;28;20069;-85
2023/11/20 02:08:46;;;;;;;1.42;0.85;;;;;;;;;;5027043;28;20034;-85
2023/11/20 02:11:12;;;;;;;1.25;0.50;;;;;;;;;;5027342;28;20041;-85
2023/11/20 02:13:39;;;;;;;3.22;0.70;;;;;;;;;;5028548;28;20481;-85
2023/11/20 02:16:05;;;;;;;0.45;0.35;;;;;;;;;;5028550;28;20079;-85
2023/11/20 02:18:36;;;;;;;1.73;0.65;;;;;;;;;;5026915;28;20053;-85
2023/11/20 02:21:02;;;;;;;3.58;1.30;;;;;;;;;;5022508;28;20044;-85
2023/11/20 02:23:29;;;;;;;1.00;0.70;;;;;;;;;;5024213;28;20037;-85
2023/11/20 02:26:09;;;;;;;2.65;0.60;;;;;;;;;;5030961;28;20037;-85
2023/11/20 02:28:39;;;;;;;0.77;0.50;;;;;;;;;;5020078;28;20485;-85
2023/11/20 02:31:05;;;;;;;0.80;0.52;;;;;;;;;;5029497;28;20057;-86
2023/11/20 02:33:35;;;;;;;2.00;0.45;;;;;;;;;;5029777;28;20067;-85
2023/11/20 02:36:03;;;;;;;1.45;0.63;;;;;;;;;;5028074;28;20038;-85
2023/11/20 02:38:29;;;;;;;5.90;1.17;;;;;;;;;;5024576;28;20069;-86
2023/11/20 02:40:55;;;;;;;8.65;0.93;;;;;;;;;;5026016;28;20052;-85
2023/11/20 02:43:21;;;;;;;1.60;0.80;;;;;;;;;;5026162;28;20490;-85
2023/11/20 02:45:47;;;;;;;2.67;0.60;;;;;;;;;;5029088;28;20045;-85
2023/11/20 02:48:13;;;;;;;0.50;0.40;;;;;;;;;;5027556;28;20037;-86
2023/11/20 02:50:39;;;;;;;1.13;0.60;;;;;;;;;;5024075;28;20034;-85
2023/11/20 02:53:05;;;;;;;0.50;0.30;;;;;;;;;;5027135;28;20564;-85
2023/11/20 02:55:31;;;;;;;0.77;0.45;;;;;;;;;;5025182;28;20042;-85
2023/11/20 02:57:58;;;;;;;1.02;0.60;;;;;;;;;;5027064;28;20041;-85
2023/11/20 03:00:26;;;;;;;0.40;0.30;;;;;;;;;;5027805;28;20045;-85
2023/11/20 03:02:52;;;;;;;1.40;0.65;;;;;;;;;;5027285;28;20060;-85
2023/11/20 03:05:18;;;;;;;0.90;0.45;;;;;;;;;;5024945;28;20497;-85
2023/11/20 03:07:48;;;;;;;0.77;0.30;;;;;;;;;;5026425;28;20065;-85
2023/11/20 03:10:18;;;;;;;1.27;0.50;;;;;;;;;;5026813;28;20038;-85
2023/11/20 03:12:47;;;;;;;1.60;0.60;;;;;;;;;;5026870;28;20064;-85
2023/11/20 03:15:13;;;;;;;1.95;0.43;;;;;;;;;;5025088;28;20124;-86
2023/11/20 03:17:40;;;;;;;0.82;0.63;;;;;;;;;;5027667;28;20045;-85
2023/11/20 03:20:06;;;;;;;0.70;0.35;;;;;;;;;;5023056;28;20045;-85
2023/11/20 03:22:33;;;;;;;0.88;0.50;;;;;;;;;;5028613;28;20045;-85
2023/11/20 03:24:59;;;;;;;1.90;0.88;;;;;;;;;;5019589;28;20104;-85
2023/11/20 03:27:25;;;;;;;2.08;1.15;;;;;;;;;;5028688;28;20041;-85
2023/11/20 03:29:51;;;;;;;1.15;0.68;;;;;;;;;;5026079;28;20041;-85
2023/11/20 03:32:18;;;;;;;2.75;0.93;;;;;;;;;;5018367;28;20501;-84
2023/11/20 03:34:46;;;;;;;3.05;1.02;;;;;;;;;;5034219;28;20613;-86
2023/11/20 03:37:12;;;;;;;0.75;0.45;;;;;;;;;;5019009;28;20041;-86
2023/11/20 03:39:38;;;;;;;4.45;0.85;;;;;;;;;;5025054;28;20091;-85
2023/11/20 03:42:04;;;;;;;1.95;0.52;;;;;;;;;;5024966;28;20138;-86
2023/11/20 03:44:30;;;;;;;1.15;0.35;;;;;;;;;;5020675;28;20044;-85
2023/11/20 03:46:56;;;;;;;0.35;0.30;;;;;;;;;;5015665;28;20042;-86
2023/11/20 03:49:22;;;;;;;2.58;1.40;;;;;;;;;;5020810;28;20037;-86
2023/11/20 03:51:49;;;;;;;1.20;0.57;;;;;;;;;;5025229;28;20114;-85
2023/11/20 03:54:15;;;;;;;22.65;0.85;;;;;;;;;;5033889;28;20128;-86
2023/11/20 03:56:41;;;;;;;1.52;0.57;;;;;;;;;;5030041;28;20049;-85
2023/11/20 03:59:07;;;;;;;1.35;0.82;;;;;;;;;;5025782;28;20109;-85
2023/11/20 04:01:33;;;;;;;0.20;0.20;;;;;;;;;;5032558;28;20200;-85
2023/11/20 04:03:59;;;;;;;1.48;0.57;;;;;;;;;;5030227;28;20049;-85
2023/11/20 04:06:25;;;;;;;2.03;1.33;;;;;;;;;;5032111;28;20828;-86
2023/11/20 04:08:51;;;;;;;0.50;0.40;;;;;;;;;;5020529;28;20197;-85
2023/11/20 04:11:17;;;;;;;1.52;0.68;;;;;;;;;;5033606;28;20052;-86
2023/11/20 04:13:43;;;;;;;2.65;0.80;;;;;;;;;;5029750;28;20049;-86
2023/11/20 04:16:10;;;;;;;3.42;1.25;;;;;;;;;;5032065;28;20049;-86
2023/11/20 04:18:36;;;;;;;0.50;0.40;;;;;;;;;;5023485;28;20070;-86
2023/11/20 04:21:03;;;;;;;2.28;1.65;;;;;;;;;;5015063;28;20425;-85
2023/11/20 04:23:29;;;;;;;4.95;1.33;;;;;;;;;;5012425;28;20053;-86
2023/11/20 04:25:55;;;;;;;2.15;1.65;;;;;;;;;;5012671;28;20478;-86
2023/11/20 04:28:22;;;;;;;1.67;1.10;;;;;;;;;;5011890;28;20045;-85
2023/11/20 04:30:48;;;;;;;2.13;1.23;;;;;;;;;;5015120;28;20041;-86
2023/11/20 04:33:14;;;;;;;11.18;3.45;;;;;;;;;;5028218;28;20528;-86
2023/11/20 04:35:40;;;;;;;5.78;3.88;;;;;;;;;;5021235;28;20041;-86
2023/11/20 04:38:06;;;;;;;6.45;1.90;;;;;;;;;;5031690;28;20508;-85
2023/11/20 04:40:33;;;;;;;2.72;1.65;;;;;;;;;;5017071;28;20071;-85
2023/11/20 04:42:59;;;;;;;3.67;1.20;;;;;;;;;;5013598;28;20030;-86
2023/11/20 04:45:26;;;;;;;3.50;0.73;;;;;;;;;;5010905;28;20041;-86
2023/11/20 04:47:52;;;;;;;1.83;1.15;;;;;;;;;;5001805;28;20133;-86
2023/11/20 04:50:17;;;;;;;2.20;0.88;;;;;;;;;;5021112;28;20220;-86
2023/11/20 04:52:44;;;;;;;2.45;1.30;;;;;;;;;;5011206;28;20100;-85
2023/11/20 04:55:10;;;;;;;2.50;1.15;;;;;;;;;;5007418;28;20068;-85
2023/11/20 04:57:36;;;;;;;4.15;1.83;;;;;;;;;;5010745;28;20124;-85
2023/11/20 05:00:03;;;;;;;1.48;1.23;;;;;;;;;;5010618;28;20069;-86
2023/11/20 05:02:29;;;;;;;4.93;1.13;;;;;;;;;;5010556;28;20920;-85
2023/11/20 05:04:55;;;;;;;3.60;1.92;;;;;;;;;;5011204;28;20358;-85
2023/11/20 05:07:21;;;;;;;3.72;1.33;;;;;;;;;;5012676;28;20042;-86
2023/11/20 05:09:47;;;;;;;6.20;1.35;;;;;;;;;;5010869;28;20045;-86
2023/11/20 05:12:13;;;;;;;6.53;2.13;;;;;;;;;;5013558;28;20054;-85
2023/11/20 05:14:39;;;;;;;3.58;0.88;;;;;;;;;;5012853;28;20045;-86
2023/11/20 05:17:05;;;;;;;3.22;1.48;;;;;;;;;;5013549;28;20057;-86
2023/11/20 05:19:32;;;;;;;5.70;1.75;;;;;;;;;;5011250;28;20472;-85
2023/11/20 05:21:58;;;;;;;5.90;1.13;;;;;;;;;;5016984;28;20418;-85
2023/11/20 05:24:24;;;;;;;0.90;0.60;;;;;;;;;;5008938;28;20387;-85
2023/11/20 05:26:52;;;;;;;1.95;0.77;;;;;;;;;;5027720;28;20034;-85
2023/11/20 05:29:18;;;;;;;5.15;0.98;;;;;;;;;;5012325;28;20037;-86
2023/11/20 05:31:44;;;;;;;2.17;1.25;;;;;;;;;;5009272;28;20145;-86
2023/11/20 05:34:10;;;;;;;3.17;1.23;;;;;;;;;;5003552;28;20124;-86
2023/11/20 05:36:36;;;;;;;3.15;1.75;;;;;;;;;;5018510;28;20423;-86
2023/11/20 05:39:02;;;;;;;1.65;0.93;;;;;;;;;;5013377;28;20489;-86
2023/11/20 05:41:28;;;;;;;0.95;0.90;;;;;;;;;;5005184;28;20076;-86
2023/11/20 05:43:54;;;;;;;7.22;0.50;;;;;;;;;;5002404;28;20116;-85
2023/11/20 05:46:20;;;;;;;1.52;0.93;;;;;;;;;;5017015;28;20089;-85
2023/11/20 05:48:46;;;;;;;2.60;0.73;;;;;;;;;;5020832;28;20053;-86
2023/11/20 05:51:21;;;;;;;2.58;0.90;;;;;;;;;;5015975;28;20065;-86
2023/11/20 05:53:47;;;;;;;1.33;0.80;;;;;;;;;;5009556;28;21000;-86
2023/11/20 05:56:13;;;;;;;1.60;0.98;;;;;;;;;;5010598;28;20034;-86
2023/11/20 05:58:40;;;;;;;1.65;0.93;;;;;;;;;;5013197;28;20129;-86
2023/11/20 06:01:06;;;;;;;2.53;0.60;;;;;;;;;;5012217;28;20049;-86
2023/11/20 06:03:32;;;;;;;3.42;1.00;;;;;;;;;;5011924;28;20041;-84
2023/11/20 06:05:58;;;;;;;2.50;1.08;;;;;;;;;;5012269;28;20038;-84
2023/11/20 06:08:24;;;;;;;2.90;1.15;;;;;;;;;;5015640;28;20030;-85
2023/11/20 06:10:50;;;;;;;2.03;0.77;;;;;;;;;;5013219;28;20042;-86
2023/11/20 06:13:18;;;;;;;4.10;1.58;;;;;;;;;;5009513;28;20496;-86
2023/11/20 06:15:44;;;;;;;9.52;2.65;;;;;;;;;;5001554;28;20561;-86
2023/11/20 06:18:10;;;;;;;4.15;2.88;;;;;;;;;;5026147;28;20049;-83
2023/11/20 06:20:36;;;;;;;1.80;0.80;;;;;;;;;;5004659;28;20042;-85
2023/11/20 06:23:02;;;;;;;3.80;1.35;;;;;;;;;;5016906;28;20058;-89
2023/11/20 06:25:28;;;;;;;2.90;1.23;;;;;;;;;;5026827;28;20103;-86
2023/11/20 06:27:57;;;;;;;3.22;1.48;;;;;;;;;;5010347;28;20042;-87
2023/11/20 06:30:25;;;;;;;5.05;1.88;;;;;;;;;;5001988;28;20038;-88
2023/11/20 06:33:08;;;;;;;6.88;1.38;;;;;;;;;;5009494;28;20116;-89
2023/11/20 06:35:40;;;;;;;3.10;1.27;;;;;;;;;;5075896;22;20036;-88
2023/11/20 06:38:09;;;;;;;2.75;1.30;;;;;;;;;;4987062;28;20050;-91
2023/11/20 06:40:36;;;;;;;2.28;1.17;;;;;;;;;;4989694;28;20066;-88
2023/11/20 06:43:04;;;;;;;3.55;1.52;;;;;;;;;;4986913;28;20049;-88
2023/11/20 06:45:30;;;;;;;4.53;0.93;;;;;;;;;;4984090;28;20046;-87
2023/11/20 06:47:57;;;;;;;5.18;1.65;;;;;;;;;;4973407;28;20035;-87
2023/11/20 06:50:28;;;;;;;6.78;2.22;;;;;;;;;;4977523;28;20045;-87
2023/11/20 06:52:57;;;;;;;7.10;2.42;;;;;;;;;;4982318;28;20042;-88
2023/11/20 06:55:23;;;;;;;3.50;2.08;;;;;;;;;;4987701;28;20588;-87
2023/11/20 06:57:50;;;;;;;6.95;2.90;;;;;;;;;;5000439;28;20054;-88
2023/11/20 07:00:16;;;;;;;6.15;2.47;;;;;;;;;;4990113;28;20172;-88
2023/11/20 07:02:42;;;;;;;3.08;1.70;;;;;;;;;;4986041;28;20038;-89
2023/11/20 07:05:11;;;;;;;3.65;2.00;;;;;;;;;;4989678;28;20038;-88
2023/11/20 07:08:08;;;;;;;5.95;2.47;;;;;;;;;;4988760;28;20041;-88
2023/11/20 07:10:38;;;;;;;8.95;2.70;;;;;;;;;;4990495;28;20129;-90
2023/11/20 07:28:26;;;;;;;3.10;1.60;;;;;;;;;;6099058;23;20053;-87
2023/11/20 07:30:52;;;;;;;3.88;2.63;;;;;;;;;;6106689;23;20048;-84
2023/11/20 07:33:18;;;;;;;7.63;3.28;;;;;;;;;;6156563;23;20017;-85
2023/11/20 07:35:51;;;;;;;4.07;2.20;;;;;;;;;;6188403;23;20046;-86
2023/11/20 07:38:18;;;;;;;5.15;2.17;;;;;;;;;;6222824;23;20019;-85
2023/11/20 07:40:45;;;;;;;8.57;3.15;;;;;;;;;;6224626;23;20046;-86
2023/11/20 07:43:11;;;;;;;5.65;2.47;;;;;;;;;;6223144;23;20321;-85
2023/11/20 07:45:37;;;;;;;5.90;2.05;;;;;;;;;;6224025;23;20008;-85
2023/11/20 07:48:04;;;;;;;6.97;2.35;;;;;;;;;;6224185;23;20618;-84
2023/11/20 07:50:30;;;;;;;2.45;1.20;;;;;;;;;;6223971;23;20023;-84
2023/11/20 07:52:56;;;;;;;6.28;2.85;;;;;;;;;;6222023;23;20019;-83
2023/11/20 07:55:22;;;;;;;3.75;1.58;;;;;;;;;;6248242;23;20076;-83
2023/11/20 07:57:48;;;;;;;3.63;2.10;;;;;;;;;;6248960;22;20556;-84
2023/11/20 08:00:17;;;;;;;2.95;1.58;;;;;;;;;;6222365;23;20083;-83
2023/11/20 08:02:43;;;;;;;4.90;2.45;;;;;;;;;;6250008;22;20016;-85
2023/11/20 08:05:10;;;;;;;5.72;3.60;;;;;;;;;;6250593;23;20507;-85
2023/11/20 08:07:36;;;;;;;8.23;2.50;;;;;;;;;;6249242;22;20015;-84
2023/11/20 08:10:03;;;;;;;3.50;2.15;;;;;;;;;;6220948;23;20749;-83
2023/11/20 08:12:29;;;;;;;5.45;2.80;;;;;;;;;;6250316;23;20014;-83
2023/11/20 08:14:56;;;;;;;3.72;1.90;;;;;;;;;;6249651;23;20095;-84
2023/11/20 08:17:22;;;;;;;6.30;1.65;;;;;;;;;;6223095;23;20008;-85
2023/11/20 08:19:49;;;;;;;1.75;1.30;;;;;;;;;;6249411;23;20010;-84
2023/11/20 08:22:15;;;;;;;3.45;1.75;;;;;;;;;;6222520;23;20020;-83
2023/11/20 08:24:43;;;;;;;3.20;1.63;;;;;;;;;;6217679;23;20024;-85
2023/11/20 08:27:09;;;;;;;1.10;0.75;;;;;;;;;;6208684;23;20016;-84
2023/11/20 08:29:35;;;;;;;0.30;0.20;;;;;;;;;;6208420;23;20050;-84
2023/11/20 08:32:03;;;;;;;3.28;0.65;;;;;;;;;;6209276;23;20013;-84
2023/11/20 08:34:29;;;;;;;2.38;0.93;;;;;;;;;;6208970;23;20091;-84
2023/11/20 08:36:55;;;;;;;4.55;1.55;;;;;;;;;;6209104;23;20055;-84
2023/11/20 08:39:24;;;;;;;7.57;2.42;;;;;;;;;;6208182;23;20016;-85
2023/11/20 08:41:53;;;;;;;4.07;1.95;;;;;;;;;;6208556;23;20004;-85
2023/11/20 08:44:21;;;;;;;3.20;1.90;;;;;;;;;;6208807;23;20012;-83
2023/11/20 08:46:47;;;;;;;3.22;2.08;;;;;;;;;;6208335;23;20509;-84
2023/11/20 08:49:14;;;;;;;2.25;1.58;;;;;;;;;;6208765;23;20087;-84
2023/11/20 08:51:43;;;;;;;3.58;2.15;;;;;;;;;;6208006;23;20092;-84
2023/11/20 08:54:09;;;;;;;5.28;2.70;;;;;;;;;;6208582;23;20022;-85
2023/11/20 08:56:36;;;;;;;1.60;0.60;;;;;;;;;;6208737;23;20348;-83
2023/11/20 08:59:02;;;;;;;1.60;0.28;;;;;;;;;;6214505;23;20343;-83
2023/11/20 09:01:34;;;;;;;0.95;0.65;;;;;;;;;;6214857;23;20010;-83
2023/11/20 09:04:05;;;;;;;1.15;0.77;;;;;;;;;;6215695;23;20016;-83
2023/11/20 09:06:32;;;;;;;0.38;0.20;;;;;;;;;;6215421;23;20103;-83
2023/11/20 09:08:58;;;;;;;0.47;0.22;;;;;;;;;;6215748;23;20008;-83
2023/11/20 09:11:24;;;;;;;0.98;0.50;;;;;;;;;;6215742;23;20039;-84
2023/11/20 09:13:53;;;;;;;1.70;0.32;;;;;;;;;;6215563;23;20613;-84
2023/11/20 09:16:20;;;;;;;1.15;0.73;;;;;;;;;;6215035;23;20095;-84
2023/11/20 09:18:46;;;;;;;1.40;0.90;;;;;;;;;;6215429;23;20039;-84
2023/11/20 09:21:13;;;;;;;3.42;1.65;;;;;;;;;;6214682;23;20099;-84
2023/11/20 09:23:39;;;;;;;5.13;2.58;;;;;;;;;;6214888;23;20102;-84
2023/11/20 09:26:11;;;;;;;4.30;1.92;;;;;;;;;;6213906;23;20015;-86
2023/11/20 09:28:37;;;;;;;11.10;1.33;;;;;;;;;;6214991;23;20458;-84
2023/11/20 09:31:03;;;;;;;2.38;0.93;;;;;;;;;;6242024;23;20023;-84
2023/11/20 09:33:30;;;;;;;1.80;1.02;;;;;;;;;;6242334;22;20018;-85
2023/11/20 09:35:56;;;;;;;4.72;2.20;;;;;;;;;;6241724;23;20012;-84
2023/11/20 09:38:22;;;;;;;3.47;1.35;;;;;;;;;;6215042;23;20008;-87
2023/11/20 09:40:48;;;;;;;4.93;1.33;;;;;;;;;;6214878;23;20551;-84
2023/11/20 09:43:15;;;;;;;2.50;0.95;;;;;;;;;;6241616;23;20539;-84
2023/11/20 09:45:43;;;;;;;5.30;3.33;;;;;;;;;;6215565;23;20012;-84
2023/11/20 09:48:10;;;;;;;4.50;2.97;;;;;;;;;;6214264;23;20015;-83
2023/11/20 09:50:37;;;;;;;3.55;1.88;;;;;;;;;;6241963;23;20647;-83
2023/11/20 09:53:05;;;;;;;8.77;3.05;;;;;;;;;;6213925;23;20019;-83
2023/11/20 09:55:31;;;;;;;2.92;2.03;;;;;;;;;;6213902;23;20034;-83
2023/11/20 09:57:57;;;;;;;5.47;1.77;;;;;;;;;;6240637;23;20009;-82
2023/11/20 10:00:24;;;;;;;4.65;1.90;;;;;;;;;;6241286;23;20019;-82
2023/11/20 10:02:51;;;;;;;1.58;0.77;;;;;;;;;;6241100;22;20366;-82
2023/11/20 10:05:17;;;;;;;1.48;0.93;;;;;;;;;;6215050;23;20058;-82
2023/11/20 10:07:45;;;;;;;2.97;1.65;;;;;;;;;;6241113;22;20020;-83
2023/11/20 10:10:12;;;;;;;3.05;0.93;;;;;;;;;;6214532;23;20085;-83
2023/11/20 10:12:39;;;;;;;2.28;1.33;;;;;;;;;;6240747;23;20083;-82
2023/11/20 10:15:06;;;;;;;2.80;1.48;;;;;;;;;;6242136;23;20004;-83
2023/11/20 10:17:34;;;;;;;3.67;1.42;;;;;;;;;;6240718;23;20008;-82
2023/11/20 10:20:00;;;;;;;1.70;0.90;;;;;;;;;;6214338;23;20335;-83
2023/11/20 10:22:26;;;;;;;2.35;1.05;;;;;;;;;;6215405;23;20012;-83
2023/11/20 10:24:53;;;;;;;4.95;1.90;;;;;;;;;;6215481;23;20094;-84
2023/11/20 10:27:20;;;;;;;2.10;1.35;;;;;;;;;;6243732;22;20324;-84
2023/11/20 10:29:46;;;;;;;1.95;1.13;;;;;;;;;;6242361;23;20012;-84
2023/11/20 10:32:12;;;;;;;1.58;0.95;;;;;;;;;;6215245;23;20015;-84
2023/11/20 10:34:38;;;;;;;2.50;0.85;;;;;;;;;;6214684;23;20085;-84
2023/11/20 10:37:06;;;;;;;1.55;0.70;;;;;;;;;;6215813;23;20008;-84
2023/11/20 10:39:32;;;;;;;1.60;0.28;;;;;;;;;;6214085;23;20111;-83
2023/11/20 10:41:58;;;;;;;0.65;0.17;;;;;;;;;;6215466;23;20006;-84
2023/11/20 10:44:27;;;;;;;1.23;0.65;;;;;;;;;;6241448;23;20423;-83
2023/11/20 10:46:53;;;;;;;1.83;0.98;;;;;;;;;;6214288;23;20046;-84
2023/11/20 10:49:21;;;;;;;7.70;1.58;;;;;;;;;;6214776;23;20019;-83
2023/11/20 10:51:53;;;;;;;2.00;1.30;;;;;;;;;;6240954;22;20005;-84
2023/11/20 10:54:19;;;;;;;;;;;;;;;;;;6241993;23;20057;-84
2023/11/20 10:56:45;;;;;;;1.10;0.57;;;;;;;;;;6213992;22;19931;-84
2023/11/20 10:59:12;;;;;;;1.23;0.50;;;;;;;;;;6241964;23;20036;-84
2023/11/20 11:01:39;;;;;;;1.95;0.80;;;;;;;;;;6241203;23;20408;-84
2023/11/20 11:04:05;;;;;;;1.55;0.90;;;;;;;;;;6241875;22;20019;-84
2023/11/20 11:06:31;;;;;;;3.15;1.38;;;;;;;;;;6241784;23;20564;-84
2023/11/20 11:08:59;;;;;;;1.90;0.50;;;;;;;;;;6213752;23;20019;-84
2023/11/20 11:11:25;;;;;;;1.08;0.60;;;;;;;;;;6213637;23;20020;-84
2023/11/20 11:13:52;;;;;;;1.83;0.60;;;;;;;;;;6241533;22;20004;-86
2023/11/20 11:16:30;;;;;;;1.98;1.00;;;;;;;;;;6214846;23;20340;-86
2023/11/20 11:19:01;;;;;;;0.77;0.52;;;;;;;;;;6215251;23;20405;-85
2023/11/20 11:21:31;;;;;;;0.90;0.68;;;;;;;;;;6214895;23;20019;-86
2023/11/20 11:23:57;;;;;;;1.05;0.50;;;;;;;;;;6214767;23;20059;-84
2023/11/20 11:26:31;;;;;;;2.22;0.70;;;;;;;;;;6242645;23;20046;-85
2023/11/20 11:29:02;;;;;;;2.28;1.55;;;;;;;;;;6215516;23;20047;-84
2023/11/20 11:31:52;;;;;;;14.30;1.60;;;;;;;;;;6240710;23;20008;-84
2023/11/20 11:34:21;;;;;;;0.85;0.45;;;;;;;;;;6229103;23;20074;-84
2023/11/20 11:36:49;;;;;;;1.08;0.93;;;;;;;;;;6241253;23;20023;-84
2023/11/20 11:39:16;;;;;;;1.88;0.73;;;;;;;;;;6242018;23;20004;-83
2023/11/20 11:41:47;;;;;;;3.35;1.17;;;;;;;;;;6242026;23;20008;-83
2023/11/20 11:44:34;;;;;;;2.10;0.75;;;;;;;;;;6241408;23;20015;-83
2023/11/20 11:47:02;;;;;;;1.60;1.13;;;;;;;;;;6241059;22;20004;-83
2023/11/20 11:49:30;;;;;;;9.82;1.88;;;;;;;;;;6240415;23;20004;-82
2023/11/20 11:52:03;;;;;;;1.23;0.77;;;;;;;;;;6214108;22;20035;-83
2023/11/20 11:54:30;;;;;;;2.35;0.55;;;;;;;;;;6214352;23;20042;-83
2023/11/20 11:56:59;;;;;;;1.35;0.80;;;;;;;;;;6214867;22;20197;-82
2023/11/20 11:59:31;;;;;;;1.27;0.20;;;;;;;;;;6241688;23;20004;-83
2023/11/20 12:01:58;;;;;;;2.15;1.25;;;;;;;;;;6215877;22;20328;-83
2023/11/20 12:04:42;;;;;;;1.65;1.15;;;;;;;;;;6242633;23;20015;-83
2023/11/20 12:07:08;;;;;;;3.35;0.90;;;;;;;;;;6243589;23;20031;-83
2023/11/20 12:09:58;;;;;;;1.73;0.70;;;;;;;;;;6216009;23;20408;-83
2023/11/20 12:12:43;;;;;;;12.05;0.90;;;;;;;;;;6231242;23;20055;-84
2023/11/20 12:15:28;;;;;;;1.58;0.93;;;;;;;;;;6242887;23;20004;-84
2023/11/20 12:17:57;;;;;;;3.08;0.95;;;;;;;;;;6216129;23;20217;-84
2023/11/20 12:20:23;;;;;;;2.30;1.05;;;;;;;;;;6215825;23;20015;-84
2023/11/20 12:22:49;;;;;;;3.72;0.75;;;;;;;;;;6216156;23;20020;-84
2023/11/20 12:25:20;;;;;;;2.45;0.77;;;;;;;;;;6243261;23;20411;-83
2023/11/20 12:27:46;;;;;;;5.95;1.35;;;;;;;;;;6217299;23;20016;-85
2023/11/20 12:30:12;;;;;;;2.97;1.30;;;;;;;;;;6216546;23;20007;-84
2023/11/20 12:32:38;;;;;;;1.35;0.57;;;;;;;;;;6243303;22;20012;-84
2023/11/20 12:35:05;;;;;;;2.38;1.15;;;;;;;;;;6243320;23;20050;-85
2023/11/20 12:37:32;;;;;;;9.07;0.77;;;;;;;;;;6215966;23;20016;-84
2023/11/20 12:39:59;;;;;;;2.05;0.60;;;;;;;;;;6243013;23;20428;-83
2023/11/20 12:42:28;;;;;;;0.98;0.57;;;;;;;;;;6242802;22;20040;-84
2023/11/20 12:44:54;;;;;;;0.70;0.52;;;;;;;;;;6242755;23;20007;-84
2023/11/20 12:47:20;;;;;;;1.92;1.00;;;;;;;;;;6242405;23;20012;-84
2023/11/20 12:49:46;;;;;;;3.35;1.05;;;;;;;;;;6242845;23;20000;-83
2023/11/20 12:52:14;;;;;;;5.68;0.95;;;;;;;;;;6242866;22;20057;-84
2023/11/20 12:54:40;;;;;;;3.13;0.40;;;;;;;;;;6243224;23;20093;-84
2023/11/20 12:57:06;;;;;;;2.67;1.05;;;;;;;;;;6215754;22;20042;-84
2023/11/20 12:59:33;;;;;;;0.57;0.50;;;;;;;;;;6215952;23;20004;-85
2023/11/20 13:01:59;;;;;;;1.15;0.77;;;;;;;;;;6215776;22;20008;-85
2023/11/20 13:04:25;;;;;;;2.63;1.02;;;;;;;;;;6216364;23;20012;-84
2023/11/20 13:06:54;;;;;;;1.05;0.60;;;;;;;;;;6244144;22;19996;-84
2023/11/20 13:09:20;;;;;;;0.35;0.30;;;;;;;;;;6217014;23;20016;-84
2023/11/20 13:11:48;;;;;;;2.08;0.70;;;;;;;;;;6216146;23;20004;-84
2023/11/20 13:14:17;;;;;;;2.63;0.32;;;;;;;;;;6215171;23;20012;-84
2023/11/20 13:16:43;;;;;;;2.40;0.82;;;;;;;;;;6243239;23;20012;-85
2023/11/20 13:19:09;;;;;;;13.55;1.67;;;;;;;;;;6216230;23;20023;-84
2023/11/20 13:21:35;;;;;;;1.33;0.70;;;;;;;;;;6216231;23;20045;-85
2023/11/20 13:24:04;;;;;;;1.50;0.50;;;;;;;;;;6215692;23;20020;-85
2023/11/20 13:26:31;;;;;;;0.80;0.52;;;;;;;;;;6215829;23;20394;-84
2023/11/20 13:29:02;;;;;;;0.93;0.45;;;;;;;;;;6242839;23;20043;-84
2023/11/20 13:31:34;;;;;;;1.27;0.50;;;;;;;;;;6242731;23;20080;-85
2023/11/20 13:34:00;;;;;;;1.77;0.40;;;;;;;;;;6216084;23;20016;-84
2023/11/20 13:36:27;;;;;;;0.82;0.40;;;;;;;;;;6215797;23;20000;-84
2023/11/20 13:39:10;;;;;;;2.38;1.35;;;;;;;;;;6215948;23;20025;-88
2023/11/20 13:41:36;;;;;;;2.40;0.90;;;;;;;;;;6215181;23;20083;-85
2023/11/20 13:44:03;;;;;;;1.98;0.80;;;;;;;;;;6215349;23;20016;-84
2023/11/20 13:46:31;;;;;;;5.03;1.45;;;;;;;;;;6215542;23;20613;-84
2023/11/20 13:48:57;;;;;;;1.67;0.80;;;;;;;;;;6214939;23;20683;-85
2023/11/20 13:51:23;;;;;;;2.63;0.85;;;;;;;;;;6216916;23;20047;-85
2023/11/20 13:53:50;;;;;;;1.75;1.10;;;;;;;;;;6215662;23;20016;-85
2023/11/20 13:56:19;;;;;;;5.53;1.50;;;;;;;;;;6215734;23;20073;-85
2023/11/20 13:58:49;;;;;;;4.13;1.27;;;;;;;;;;6215752;23;20310;-86
2023/11/20 14:01:17;;;;;;;2.25;1.10;;;;;;;;;;6215560;23;20309;-86
2023/11/20 14:03:45;;;;;;;0.85;0.45;;;;;;;;;;6215754;23;20095;-85
2023/11/20 14:06:11;;;;;;;2.42;1.58;;;;;;;;;;6215586;23;20012;-85
2023/11/20 14:08:37;;;;;;;0.80;0.50;;;;;;;;;;6215262;23;20043;-84
2023/11/20 14:11:04;;;;;;;0.98;0.47;;;;;;;;;;6214931;23;20605;-84
2023/11/20 14:13:30;;;;;;;3.75;2.70;;;;;;;;;;6215359;23;20324;-84
2023/11/20 14:15:56;;;;;;;2.25;1.00;;;;;;;;;;6214145;23;20359;-84
2023/11/20 14:18:22;;;;;;;2.33;1.08;;;;;;;;;;6215189;23;20016;-84
2023/11/20 14:20:50;;;;;;;2.22;1.17;;;;;;;;;;6214689;23;20170;-84
2023/11/20 14:23:16;;;;;;;4.72;1.35;;;;;;;;;;6214567;23;20028;-84
2023/11/20 14:25:42;;;;;;;1.67;1.20;;;;;;;;;;6214171;23;20363;-84
2023/11/20 14:28:09;;;;;;;8.95;1.83;;;;;;;;;;6215361;23;20026;-84
2023/11/20 14:30:35;;;;;;;1.95;0.93;;;;;;;;;;6212317;23;20012;-85
2023/11/20 14:33:01;;;;;;;1.98;0.85;;;;;;;;;;6214885;23;20016;-85
2023/11/20 14:35:27;;;;;;;10.77;1.55;;;;;;;;;;6214107;23;20004;-86
2023/11/20 14:37:56;;;;;;;3.88;1.92;;;;;;;;;;6215258;23;20187;-85
2023/11/20 14:40:22;;;;;;;1.85;0.75;;;;;;;;;;6241165;23;20126;-85
2023/11/20 14:42:48;;;;;;;2.65;1.42;;;;;;;;;;6241815;23;20040;-85
2023/11/20 14:45:15;;;;;;;1.25;0.77;;;;;;;;;;6241638;23;20086;-84
2023/11/20 14:47:46;;;;;;;3.22;1.42;;;;;;;;;;6215034;23;20024;-82
2023/11/20 14:50:16;;;;;;;6.68;2.00;;;;;;;;;;6242061;23;20008;-83
2023/11/20 14:52:43;;;;;;;3.65;1.33;;;;;;;;;;6244176;23;20016;-84
2023/11/20 14:55:10;;;;;;;3.85;1.45;;;;;;;;;;6216342;23;20004;-84
2023/11/20 14:57:37;;;;;;;4.85;1.58;;;;;;;;;;6241545;23;20012;-86
2023/11/20 15:00:04;;;;;;;3.53;1.30;;;;;;;;;;6215169;23;20000;-86